Airfield :







YOU CAN JOIN US ON...

 
LOGIN :

Register | Disclaimer

   EN    FR    IT 

 









Legend :    VFR   Marginal VFR   IFR   Intensive IFR   Very Intensive IFR
Visi :
Ceiling :
>= 8 km
>= 3000ft
5 to 8 km
1000 to 3000 ft
1500m to 5 km
500 to 1000 ft
800 to 1500m
200 to 500 ft
< 800m
< 200 ft
Symbols :   Thunderstorms  Fog  Heavy snow  Heavy precipitations  Wind > 20 kt






- Airport Elevation : 1074 ft


KHIE - Mount Washington Regional

CURRENT METAR :
  • 231737Z AUTO 35003KT 10SM FEW015 SCT021 BKN032 13/08 A2979 RMK AO2 T01280083

EXPIRED METARs :
  • 231730Z AUTO 36005KT 10SM FEW015 BKN021 BKN032 13/09 A2979 RMK AO2 T01330089
  • 231652Z AUTO 00000KT 10SM BKN065 12/09 A2980 RMK AO2 SLP096 T01220094
  • 231552Z AUTO 29004KT 10SM FEW022 BKN036 OVC043 11/09 A2981 RMK AO2 RAB11E34 SLP100 P0002 T01110089
  • 231544Z AUTO VRB04KT 10SM FEW009 SCT021 OVC034 11/09 A2982 RMK AO2 RAB11E34 P0002 T01110089
  • 231531Z AUTO 30005KT 5SM -RA BR FEW004 BKN021 OVC035 11/08 A2981 RMK AO2 RAB11 P0002 T01060083
  • 231521Z AUTO 30009G15KT 2SM -RA BR SCT004 BKN012 OVC024 11/09 A2981 RMK AO2 RAB11 P0001 T01110094
  • 231511Z AUTO 27003KT 3SM -RA BR FEW004 BKN013 OVC028 11/10 A2981 RMK AO2 RAB11 P0000 T01110100
  • 231452Z AUTO 28005KT 9SM BKN004 OVC027 11/09 A2981 RMK AO2 SLP098 60003 T01060094 52002

TAF KHIE
Valid from the 23 at 18:00 until the 24 at 18:00 UTC


231720Z 2318/2418 00000KT P6SM BKN070
FM240900 32007KT P6SM FEW250



MET'MAP, your aeronautical weather chart ! - Copyright ORBIFLY December 2007 - Disclaimer

ORBIFLY MET'MAP TEAM :

Programming & Development : Alexandra Zaïnal
Concept & Development : Baudouin d'Aumeries
Co-Development & Prog : Marc-Olivier Méhu
Technical & hardware support : Manuel Goepfert

Contact : metmap@orbifly.com




SOURCES & CREDITS :

   NOAA